sensor_id;sensor_type;location;lat;lon;timestamp;P1;durP1;ratioP1;P2;durP2;ratioP2
47882;SDS011;37739;50.350;7.578;2022-09-28T00:00:39;2.90;;;1.63;;
47882;SDS011;37739;50.350;7.578;2022-09-28T00:03:06;3.00;;;1.33;;
47882;SDS011;37739;50.350;7.578;2022-09-28T00:05:34;1.47;;;1.20;;
47882;SDS011;37739;50.350;7.578;2022-09-28T00:08:00;1.80;;;1.20;;
47882;SDS011;37739;50.350;7.578;2022-09-28T00:10:25;2.17;;;1.27;;
47882;SDS011;37739;50.350;7.578;2022-09-28T00:12:51;2.23;;;1.27;;
47882;SDS011;37739;50.350;7.578;2022-09-28T00:15:19;6.83;;;1.43;;
47882;SDS011;37739;50.350;7.578;2022-09-28T00:17:48;1.67;;;1.43;;
47882;SDS011;37739;50.350;7.578;2022-09-28T00:20:14;2.07;;;1.67;;
47882;SDS011;37739;50.350;7.578;2022-09-28T00:22:43;2.33;;;1.27;;
47882;SDS011;37739;50.350;7.578;2022-09-28T00:25:08;2.23;;;1.23;;
47882;SDS011;37739;50.350;7.578;2022-09-28T00:27:34;2.20;;;1.30;;
47882;SDS011;37739;50.350;7.578;2022-09-28T00:29:59;1.87;;;1.10;;
47882;SDS011;37739;50.350;7.578;2022-09-28T00:32:27;1.70;;;0.80;;
47882;SDS011;37739;50.350;7.578;2022-09-28T00:34:53;1.20;;;0.90;;
47882;SDS011;37739;50.350;7.578;2022-09-28T00:37:19;3.27;;;0.80;;
47882;SDS011;37739;50.350;7.578;2022-09-28T00:39:47;1.07;;;0.80;;
47882;SDS011;37739;50.350;7.578;2022-09-28T00:42:19;1.77;;;0.90;;
47882;SDS011;37739;50.350;7.578;2022-09-28T00:44:50;1.80;;;0.80;;
47882;SDS011;37739;50.350;7.578;2022-09-28T00:55:50;1.00;;;0.70;;
47882;SDS011;37739;50.350;7.578;2022-09-28T00:58:20;1.20;;;0.80;;
47882;SDS011;37739;50.350;7.578;2022-09-28T01:00:51;0.80;;;0.60;;
47882;SDS011;37739;50.350;7.578;2022-09-28T01:03:18;1.27;;;0.90;;
47882;SDS011;37739;50.350;7.578;2022-09-28T01:05:44;1.53;;;0.80;;
47882;SDS011;37739;50.350;7.578;2022-09-28T01:08:18;1.60;;;0.90;;
47882;SDS011;37739;50.350;7.578;2022-09-28T01:10:45;1.00;;;0.60;;
47882;SDS011;37739;50.350;7.578;2022-09-28T01:13:15;1.13;;;0.70;;
47882;SDS011;37739;50.350;7.578;2022-09-28T01:15:45;1.30;;;0.80;;
47882;SDS011;37739;50.350;7.578;2022-09-28T01:21:22;1.83;;;0.70;;
47882;SDS011;37739;50.350;7.578;2022-09-28T01:29:55;0.80;;;0.70;;
47882;SDS011;37739;50.350;7.578;2022-09-28T01:35:04;1.07;;;0.70;;
47882;SDS011;37739;50.350;7.578;2022-09-28T01:37:42;1.00;;;0.60;;
47882;SDS011;37739;50.350;7.578;2022-09-28T01:40:16;1.10;;;0.73;;
47882;SDS011;37739;50.350;7.578;2022-09-28T01:42:45;1.90;;;1.03;;
47882;SDS011;37739;50.350;7.578;2022-09-28T01:45:17;1.43;;;0.83;;
47882;SDS011;37739;50.350;7.578;2022-09-28T01:47:47;1.00;;;0.60;;
47882;SDS011;37739;50.350;7.578;2022-09-28T01:50:15;1.63;;;0.80;;
47882;SDS011;37739;50.350;7.578;2022-09-28T01:52:48;1.50;;;0.80;;
47882;SDS011;37739;50.350;7.578;2022-09-28T01:57:57;1.00;;;0.70;;
47882;SDS011;37739;50.350;7.578;2022-09-28T02:00:29;0.90;;;0.63;;
47882;SDS011;37739;50.350;7.578;2022-09-28T02:03:08;0.80;;;0.63;;
47882;SDS011;37739;50.350;7.578;2022-09-28T02:05:41;1.30;;;0.80;;
47882;SDS011;37739;50.350;7.578;2022-09-28T02:08:32;1.00;;;0.70;;
47882;SDS011;37739;50.350;7.578;2022-09-28T02:11:11;0.80;;;0.70;;
47882;SDS011;37739;50.350;7.578;2022-09-28T02:16:43;0.80;;;0.60;;
47882;SDS011;37739;50.350;7.578;2022-09-28T02:19:22;1.13;;;0.70;;
47882;SDS011;37739;50.350;7.578;2022-09-28T02:21:55;2.53;;;0.87;;
47882;SDS011;37739;50.350;7.578;2022-09-28T02:24:36;1.23;;;0.60;;
47882;SDS011;37739;50.350;7.578;2022-09-28T02:27:11;1.33;;;0.70;;
47882;SDS011;37739;50.350;7.578;2022-09-28T02:29:41;1.87;;;1.00;;
47882;SDS011;37739;50.350;7.578;2022-09-28T02:32:09;1.10;;;0.50;;
47882;SDS011;37739;50.350;7.578;2022-09-28T02:34:35;0.83;;;0.60;;
47882;SDS011;37739;50.350;7.578;2022-09-28T02:37:02;0.80;;;0.60;;
47882;SDS011;37739;50.350;7.578;2022-09-28T02:39:30;1.73;;;0.80;;
47882;SDS011;37739;50.350;7.578;2022-09-28T02:42:05;1.20;;;0.70;;
47882;SDS011;37739;50.350;7.578;2022-09-28T03:09:42;0.93;;;0.70;;
47882;SDS011;37739;50.350;7.578;2022-09-28T03:12:20;0.80;;;0.70;;
47882;SDS011;37739;50.350;7.578;2022-09-28T03:15:04;1.20;;;0.90;;
47882;SDS011;37739;50.350;7.578;2022-09-28T03:17:34;1.00;;;0.73;;
47882;SDS011;37739;50.350;7.578;2022-09-28T03:20:00;0.83;;;0.60;;
47882;SDS011;37739;50.350;7.578;2022-09-28T03:22:26;1.10;;;0.60;;
47882;SDS011;37739;50.350;7.578;2022-09-28T03:24:51;1.00;;;0.60;;
47882;SDS011;37739;50.350;7.578;2022-09-28T03:27:17;0.60;;;0.40;;
47882;SDS011;37739;50.350;7.578;2022-09-28T03:29:44;1.00;;;0.57;;
47882;SDS011;37739;50.350;7.578;2022-09-28T03:32:12;0.80;;;0.63;;
47882;SDS011;37739;50.350;7.578;2022-09-28T03:34:37;1.07;;;0.70;;
47882;SDS011;37739;50.350;7.578;2022-09-28T03:37:06;1.37;;;1.07;;
47882;SDS011;37739;50.350;7.578;2022-09-28T03:39:34;1.30;;;0.97;;
47882;SDS011;37739;50.350;7.578;2022-09-28T03:42:01;1.13;;;1.03;;
47882;SDS011;37739;50.350;7.578;2022-09-28T03:44:26;1.23;;;0.90;;
47882;SDS011;37739;50.350;7.578;2022-09-28T03:46:51;1.10;;;0.70;;
47882;SDS011;37739;50.350;7.578;2022-09-28T03:49:17;2.43;;;1.53;;
47882;SDS011;37739;50.350;7.578;2022-09-28T03:51:42;1.70;;;1.33;;
47882;SDS011;37739;50.350;7.578;2022-09-28T03:54:10;1.60;;;1.47;;
47882;SDS011;37739;50.350;7.578;2022-09-28T03:56:35;1.70;;;1.37;;
47882;SDS011;37739;50.350;7.578;2022-09-28T03:59:03;2.17;;;1.67;;
47882;SDS011;37739;50.350;7.578;2022-09-28T04:01:29;3.67;;;1.70;;
47882;SDS011;37739;50.350;7.578;2022-09-28T04:03:54;1.57;;;1.47;;
47882;SDS011;37739;50.350;7.578;2022-09-28T04:06:22;1.63;;;0.90;;
47882;SDS011;37739;50.350;7.578;2022-09-28T04:08:48;1.20;;;1.00;;
47882;SDS011;37739;50.350;7.578;2022-09-28T04:11:16;1.53;;;1.20;;
47882;SDS011;37739;50.350;7.578;2022-09-28T04:13:41;1.00;;;0.90;;
47882;SDS011;37739;50.350;7.578;2022-09-28T04:16:08;0.93;;;0.83;;
47882;SDS011;37739;50.350;7.578;2022-09-28T04:18:36;1.20;;;0.80;;
47882;SDS011;37739;50.350;7.578;2022-09-28T04:21:09;1.20;;;1.10;;
47882;SDS011;37739;50.350;7.578;2022-09-28T04:23:37;1.50;;;1.10;;
47882;SDS011;37739;50.350;7.578;2022-09-28T04:26:04;1.40;;;0.80;;
47882;SDS011;37739;50.350;7.578;2022-09-28T04:28:33;1.30;;;1.20;;
47882;SDS011;37739;50.350;7.578;2022-09-28T04:31:27;1.20;;;1.10;;
47882;SDS011;37739;50.350;7.578;2022-09-28T04:33:53;1.23;;;1.07;;
47882;SDS011;37739;50.350;7.578;2022-09-28T04:36:20;1.20;;;0.90;;
47882;SDS011;37739;50.350;7.578;2022-09-28T04:38:51;0.83;;;0.70;;
47882;SDS011;37739;50.350;7.578;2022-09-28T04:41:19;1.67;;;0.90;;
47882;SDS011;37739;50.350;7.578;2022-09-28T04:43:47;1.00;;;0.90;;
47882;SDS011;37739;50.350;7.578;2022-09-28T04:46:13;1.50;;;1.23;;
47882;SDS011;37739;50.350;7.578;2022-09-28T04:48:39;1.20;;;1.10;;
47882;SDS011;37739;50.350;7.578;2022-09-28T04:51:04;1.40;;;1.30;;
47882;SDS011;37739;50.350;7.578;2022-09-28T04:53:30;1.43;;;1.33;;
47882;SDS011;37739;50.350;7.578;2022-09-28T04:55:59;1.37;;;1.27;;
47882;SDS011;37739;50.350;7.578;2022-09-28T04:58:26;1.10;;;0.93;;
47882;SDS011;37739;50.350;7.578;2022-09-28T05:00:52;1.40;;;1.20;;
47882;SDS011;37739;50.350;7.578;2022-09-28T05:03:20;1.13;;;0.90;;
47882;SDS011;37739;50.350;7.578;2022-09-28T05:05:48;0.90;;;0.77;;
47882;SDS011;37739;50.350;7.578;2022-09-28T05:08:14;1.30;;;0.93;;
47882;SDS011;37739;50.350;7.578;2022-09-28T05:10:40;2.60;;;0.77;;
47882;SDS011;37739;50.350;7.578;2022-09-28T05:13:09;1.50;;;1.00;;
47882;SDS011;37739;50.350;7.578;2022-09-28T05:15:44;0.90;;;0.77;;
47882;SDS011;37739;50.350;7.578;2022-09-28T05:18:12;1.30;;;1.00;;
47882;SDS011;37739;50.350;7.578;2022-09-28T05:20:43;1.30;;;1.10;;
47882;SDS011;37739;50.350;7.578;2022-09-28T05:23:09;1.90;;;1.70;;
47882;SDS011;37739;50.350;7.578;2022-09-28T05:25:35;1.30;;;1.20;;
47882;SDS011;37739;50.350;7.578;2022-09-28T05:28:01;2.27;;;1.20;;
47882;SDS011;37739;50.350;7.578;2022-09-28T05:30:27;1.00;;;0.70;;
47882;SDS011;37739;50.350;7.578;2022-09-28T05:32:55;2.17;;;0.83;;
47882;SDS011;37739;50.350;7.578;2022-09-28T05:35:20;1.10;;;0.73;;
47882;SDS011;37739;50.350;7.578;2022-09-28T05:37:46;1.17;;;1.00;;
47882;SDS011;37739;50.350;7.578;2022-09-28T05:40:12;1.57;;;1.03;;
47882;SDS011;37739;50.350;7.578;2022-09-28T05:42:37;0.90;;;0.80;;
47882;SDS011;37739;50.350;7.578;2022-09-28T05:45:03;1.73;;;1.20;;
47882;SDS011;37739;50.350;7.578;2022-09-28T05:47:36;1.53;;;0.90;;
47882;SDS011;37739;50.350;7.578;2022-09-28T05:50:04;1.23;;;1.13;;
47882;SDS011;37739;50.350;7.578;2022-09-28T05:52:31;3.47;;;2.10;;
47882;SDS011;37739;50.350;7.578;2022-09-28T05:54:59;1.47;;;1.37;;
47882;SDS011;37739;50.350;7.578;2022-09-28T05:57:24;1.83;;;1.70;;
47882;SDS011;37739;50.350;7.578;2022-09-28T05:59:49;1.77;;;1.67;;
47882;SDS011;37739;50.350;7.578;2022-09-28T06:02:15;2.20;;;1.90;;
47882;SDS011;37739;50.350;7.578;2022-09-28T06:04:40;3.30;;;3.00;;
47882;SDS011;37739;50.350;7.578;2022-09-28T06:07:08;7.10;;;5.70;;
47882;SDS011;37739;50.350;7.578;2022-09-28T06:09:33;6.33;;;5.57;;
47882;SDS011;37739;50.350;7.578;2022-09-28T06:12:01;6.00;;;4.50;;
47882;SDS011;37739;50.350;7.578;2022-09-28T06:14:28;3.07;;;2.77;;
47882;SDS011;37739;50.350;7.578;2022-09-28T06:16:53;3.53;;;3.23;;
47882;SDS011;37739;50.350;7.578;2022-09-28T06:19:19;2.93;;;2.63;;
47882;SDS011;37739;50.350;7.578;2022-09-28T06:21:44;2.40;;;2.20;;
47882;SDS011;37739;50.350;7.578;2022-09-28T06:24:14;2.43;;;2.23;;
47882;SDS011;37739;50.350;7.578;2022-09-28T06:26:39;1.80;;;1.70;;
47882;SDS011;37739;50.350;7.578;2022-09-28T06:29:07;1.50;;;1.40;;
47882;SDS011;37739;50.350;7.578;2022-09-28T06:31:34;1.33;;;1.10;;
47882;SDS011;37739;50.350;7.578;2022-09-28T06:34:00;1.30;;;1.00;;
47882;SDS011;37739;50.350;7.578;2022-09-28T06:36:27;1.53;;;0.90;;
47882;SDS011;37739;50.350;7.578;2022-09-28T06:38:58;2.00;;;1.30;;
47882;SDS011;37739;50.350;7.578;2022-09-28T06:41:23;3.33;;;1.13;;
47882;SDS011;37739;50.350;7.578;2022-09-28T06:43:48;1.23;;;1.13;;
47882;SDS011;37739;50.350;7.578;2022-09-28T06:46:14;1.40;;;1.00;;
47882;SDS011;37739;50.350;7.578;2022-09-28T06:48:42;2.20;;;1.50;;
47882;SDS011;37739;50.350;7.578;2022-09-28T06:51:09;2.37;;;1.27;;
47882;SDS011;37739;50.350;7.578;2022-09-28T06:53:34;1.67;;;1.47;;
47882;SDS011;37739;50.350;7.578;2022-09-28T06:55:59;1.50;;;1.13;;
47882;SDS011;37739;50.350;7.578;2022-09-28T06:58:32;1.63;;;1.13;;
47882;SDS011;37739;50.350;7.578;2022-09-28T07:00:59;1.50;;;1.30;;
47882;SDS011;37739;50.350;7.578;2022-09-28T07:03:27;1.37;;;1.27;;
47882;SDS011;37739;50.350;7.578;2022-09-28T07:05:55;4.03;;;1.60;;
47882;SDS011;37739;50.350;7.578;2022-09-28T07:08:21;1.50;;;1.23;;
47882;SDS011;37739;50.350;7.578;2022-09-28T07:10:52;2.90;;;1.37;;
47882;SDS011;37739;50.350;7.578;2022-09-28T07:13:24;1.80;;;1.33;;
47882;SDS011;37739;50.350;7.578;2022-09-28T07:15:56;1.83;;;0.90;;
47882;SDS011;37739;50.350;7.578;2022-09-28T07:18:23;2.60;;;1.30;;
47882;SDS011;37739;50.350;7.578;2022-09-28T07:20:52;1.20;;;0.77;;
47882;SDS011;37739;50.350;7.578;2022-09-28T07:23:21;1.30;;;0.90;;
47882;SDS011;37739;50.350;7.578;2022-09-28T07:25:47;1.33;;;0.90;;
47882;SDS011;37739;50.350;7.578;2022-09-28T07:28:14;1.83;;;1.20;;
47882;SDS011;37739;50.350;7.578;2022-09-28T07:30:41;7.00;;;1.33;;
47882;SDS011;37739;50.350;7.578;2022-09-28T07:33:08;1.50;;;1.30;;
47882;SDS011;37739;50.350;7.578;2022-09-28T07:35:36;2.10;;;1.30;;
47882;SDS011;37739;50.350;7.578;2022-09-28T07:38:03;1.90;;;1.00;;
47882;SDS011;37739;50.350;7.578;2022-09-28T07:40:30;1.20;;;1.07;;
47882;SDS011;37739;50.350;7.578;2022-09-28T07:43:15;1.10;;;0.97;;
47882;SDS011;37739;50.350;7.578;2022-09-28T07:45:47;1.70;;;1.13;;
47882;SDS011;37739;50.350;7.578;2022-09-28T07:48:14;2.17;;;1.20;;
47882;SDS011;37739;50.350;7.578;2022-09-28T07:50:40;1.30;;;1.20;;
47882;SDS011;37739;50.350;7.578;2022-09-28T07:53:11;1.90;;;1.17;;
47882;SDS011;37739;50.350;7.578;2022-09-28T07:55:36;3.27;;;0.80;;
47882;SDS011;37739;50.350;7.578;2022-09-28T07:58:06;2.20;;;0.90;;
47882;SDS011;37739;50.350;7.578;2022-09-28T08:00:31;2.10;;;1.07;;
47882;SDS011;37739;50.350;7.578;2022-09-28T08:03:00;1.73;;;1.30;;
47882;SDS011;37739;50.350;7.578;2022-09-28T08:05:28;1.20;;;1.03;;
47882;SDS011;37739;50.350;7.578;2022-09-28T08:07:56;2.00;;;1.17;;
47882;SDS011;37739;50.350;7.578;2022-09-28T08:10:24;2.00;;;1.10;;
47882;SDS011;37739;50.350;7.578;2022-09-28T08:12:56;1.30;;;0.90;;
47882;SDS011;37739;50.350;7.578;2022-09-28T08:15:25;3.40;;;1.10;;
47882;SDS011;37739;50.350;7.578;2022-09-28T08:17:53;2.73;;;1.07;;
47882;SDS011;37739;50.350;7.578;2022-09-28T08:20:22;1.77;;;0.80;;
47882;SDS011;37739;50.350;7.578;2022-09-28T08:23:08;0.90;;;0.60;;
47882;SDS011;37739;50.350;7.578;2022-09-28T08:25:36;1.53;;;0.90;;
47882;SDS011;37739;50.350;7.578;2022-09-28T08:28:02;6.17;;;1.43;;
47882;SDS011;37739;50.350;7.578;2022-09-28T08:30:28;1.80;;;1.17;;
47882;SDS011;37739;50.350;7.578;2022-09-28T08:32:55;0.87;;;0.63;;
47882;SDS011;37739;50.350;7.578;2022-09-28T08:35:21;0.90;;;0.80;;
47882;SDS011;37739;50.350;7.578;2022-09-28T08:37:50;1.27;;;1.17;;
47882;SDS011;37739;50.350;7.578;2022-09-28T08:40:20;0.97;;;0.87;;
47882;SDS011;37739;50.350;7.578;2022-09-28T08:42:57;1.20;;;0.80;;
47882;SDS011;37739;50.350;7.578;2022-09-28T08:45:28;1.10;;;0.73;;
47882;SDS011;37739;50.350;7.578;2022-09-28T08:48:05;3.40;;;1.00;;
47882;SDS011;37739;50.350;7.578;2022-09-28T08:51:19;1.87;;;0.60;;
47882;SDS011;37739;50.350;7.578;2022-09-28T08:56:46;0.80;;;0.50;;
47882;SDS011;37739;50.350;7.578;2022-09-28T08:59:47;0.80;;;0.60;;
47882;SDS011;37739;50.350;7.578;2022-09-28T09:02:30;1.27;;;0.80;;
47882;SDS011;37739;50.350;7.578;2022-09-28T09:04:57;1.40;;;0.87;;
47882;SDS011;37739;50.350;7.578;2022-09-28T09:10:40;1.17;;;0.60;;
47882;SDS011;37739;50.350;7.578;2022-09-28T09:16:10;0.90;;;0.70;;
47882;SDS011;37739;50.350;7.578;2022-09-28T09:21:27;0.87;;;0.53;;
47882;SDS011;37739;50.350;7.578;2022-09-28T09:26:47;1.77;;;0.70;;
47882;SDS011;37739;50.350;7.578;2022-09-28T09:29:54;1.60;;;0.80;;
47882;SDS011;37739;50.350;7.578;2022-09-28T09:40:55;1.63;;;0.70;;
47882;SDS011;37739;50.350;7.578;2022-09-28T09:45:58;1.60;;;0.53;;
47882;SDS011;37739;50.350;7.578;2022-09-28T09:48:36;1.10;;;0.50;;
47882;SDS011;37739;50.350;7.578;2022-09-28T09:51:12;0.70;;;0.40;;
47882;SDS011;37739;50.350;7.578;2022-09-28T09:53:50;1.57;;;0.57;;
47882;SDS011;37739;50.350;7.578;2022-09-28T09:59:10;0.80;;;0.53;;
47882;SDS011;37739;50.350;7.578;2022-09-28T10:01:42;2.00;;;0.50;;
47882;SDS011;37739;50.350;7.578;2022-09-28T10:04:14;0.83;;;0.40;;
47882;SDS011;37739;50.350;7.578;2022-09-28T10:06:48;0.93;;;0.70;;
47882;SDS011;37739;50.350;7.578;2022-09-28T10:09:28;1.10;;;0.60;;
47882;SDS011;37739;50.350;7.578;2022-09-28T10:11:56;0.87;;;0.60;;
47882;SDS011;37739;50.350;7.578;2022-09-28T10:14:22;1.10;;;0.57;;
47882;SDS011;37739;50.350;7.578;2022-09-28T10:16:53;0.70;;;0.47;;
47882;SDS011;37739;50.350;7.578;2022-09-28T10:19:24;1.50;;;0.47;;
47882;SDS011;37739;50.350;7.578;2022-09-28T10:21:56;0.77;;;0.40;;
47882;SDS011;37739;50.350;7.578;2022-09-28T10:27:06;1.10;;;0.80;;
47882;SDS011;37739;50.350;7.578;2022-09-28T10:32:25;3.57;;;0.70;;
47882;SDS011;37739;50.350;7.578;2022-09-28T10:35:44;1.47;;;0.60;;
47882;SDS011;37739;50.350;7.578;2022-09-28T10:38:14;0.80;;;0.50;;
47882;SDS011;37739;50.350;7.578;2022-09-28T10:40:47;0.80;;;0.60;;
47882;SDS011;37739;50.350;7.578;2022-09-28T10:43:21;1.40;;;0.60;;
47882;SDS011;37739;50.350;7.578;2022-09-28T10:45:58;0.90;;;0.60;;
47882;SDS011;37739;50.350;7.578;2022-09-28T10:51:10;2.20;;;0.60;;
47882;SDS011;37739;50.350;7.578;2022-09-28T10:53:35;1.60;;;0.67;;
47882;SDS011;37739;50.350;7.578;2022-09-28T10:56:03;0.90;;;0.60;;
47882;SDS011;37739;50.350;7.578;2022-09-28T10:58:39;1.33;;;0.67;;
47882;SDS011;37739;50.350;7.578;2022-09-28T11:01:09;1.47;;;0.63;;
47882;SDS011;37739;50.350;7.578;2022-09-28T11:03:47;1.13;;;0.50;;
47882;SDS011;37739;50.350;7.578;2022-09-28T11:06:23;0.87;;;0.67;;
47882;SDS011;37739;50.350;7.578;2022-09-28T11:08:52;1.07;;;0.60;;
47882;SDS011;37739;50.350;7.578;2022-09-28T11:11:20;2.27;;;0.80;;
47882;SDS011;37739;50.350;7.578;2022-09-28T11:13:48;1.67;;;0.70;;
47882;SDS011;37739;50.350;7.578;2022-09-28T11:16:17;1.80;;;0.70;;
47882;SDS011;37739;50.350;7.578;2022-09-28T11:18:45;1.00;;;0.70;;
47882;SDS011;37739;50.350;7.578;2022-09-28T11:21:18;1.10;;;0.80;;
47882;SDS011;37739;50.350;7.578;2022-09-28T11:26:50;1.87;;;0.70;;
47882;SDS011;37739;50.350;7.578;2022-09-28T11:29:25;0.90;;;0.70;;
47882;SDS011;37739;50.350;7.578;2022-09-28T11:32:08;1.23;;;0.70;;
47882;SDS011;37739;50.350;7.578;2022-09-28T11:34:44;0.90;;;0.50;;
47882;SDS011;37739;50.350;7.578;2022-09-28T11:37:25;1.00;;;0.50;;
47882;SDS011;37739;50.350;7.578;2022-09-28T11:42:49;0.90;;;0.50;;
47882;SDS011;37739;50.350;7.578;2022-09-28T11:47:51;1.00;;;0.70;;
47882;SDS011;37739;50.350;7.578;2022-09-28T11:55:44;1.00;;;0.80;;
47882;SDS011;37739;50.350;7.578;2022-09-28T11:58:32;1.33;;;0.77;;
47882;SDS011;37739;50.350;7.578;2022-09-28T12:03:45;1.30;;;0.90;;
47882;SDS011;37739;50.350;7.578;2022-09-28T12:06:17;0.87;;;0.63;;
47882;SDS011;37739;50.350;7.578;2022-09-28T12:08:51;1.07;;;0.80;;
47882;SDS011;37739;50.350;7.578;2022-09-28T12:11:32;0.90;;;0.73;;
47882;SDS011;37739;50.350;7.578;2022-09-28T12:14:09;1.20;;;0.80;;
47882;SDS011;37739;50.350;7.578;2022-09-28T12:16:46;1.03;;;0.80;;
47882;SDS011;37739;50.350;7.578;2022-09-28T12:19:21;0.80;;;0.50;;
47882;SDS011;37739;50.350;7.578;2022-09-28T12:21:49;1.37;;;0.90;;
47882;SDS011;37739;50.350;7.578;2022-09-28T12:27:02;1.50;;;0.90;;
47882;SDS011;37739;50.350;7.578;2022-09-28T12:35:17;1.03;;;0.53;;
47882;SDS011;37739;50.350;7.578;2022-09-28T12:37:55;0.80;;;0.60;;
47882;SDS011;37739;50.350;7.578;2022-09-28T12:40:31;1.03;;;0.57;;
47882;SDS011;37739;50.350;7.578;2022-09-28T12:43:32;0.90;;;0.50;;
47882;SDS011;37739;50.350;7.578;2022-09-28T12:51:46;1.13;;;0.60;;
47882;SDS011;37739;50.350;7.578;2022-09-28T13:02:49;1.30;;;0.50;;
47882;SDS011;37739;50.350;7.578;2022-09-28T13:10:51;1.23;;;0.63;;
47882;SDS011;37739;50.350;7.578;2022-09-28T13:16:14;0.90;;;0.50;;
47882;SDS011;37739;50.350;7.578;2022-09-28T13:19:20;1.10;;;0.50;;
47882;SDS011;37739;50.350;7.578;2022-09-28T13:21:59;1.50;;;0.60;;
47882;SDS011;37739;50.350;7.578;2022-09-28T13:24:49;1.10;;;0.77;;
47882;SDS011;37739;50.350;7.578;2022-09-28T13:27:26;0.80;;;0.53;;
47882;SDS011;37739;50.350;7.578;2022-09-28T13:29:57;1.77;;;0.60;;
47882;SDS011;37739;50.350;7.578;2022-09-28T13:32:27;2.03;;;0.80;;
47882;SDS011;37739;50.350;7.578;2022-09-28T13:34:59;1.00;;;0.70;;
47882;SDS011;37739;50.350;7.578;2022-09-28T13:37:27;1.00;;;0.73;;
47882;SDS011;37739;50.350;7.578;2022-09-28T13:39:58;1.17;;;0.80;;
47882;SDS011;37739;50.350;7.578;2022-09-28T13:45:26;1.03;;;0.93;;
47882;SDS011;37739;50.350;7.578;2022-09-28T13:48:13;1.13;;;0.80;;
47882;SDS011;37739;50.350;7.578;2022-09-28T14:02:00;1.83;;;0.90;;
47882;SDS011;37739;50.350;7.578;2022-09-28T14:14:57;0.70;;;0.60;;
47882;SDS011;37739;50.350;7.578;2022-09-28T14:25:29;1.30;;;1.10;;
47882;SDS011;37739;50.350;7.578;2022-09-28T14:30:46;1.30;;;1.10;;
47882;SDS011;37739;50.350;7.578;2022-09-28T14:35:46;1.70;;;1.00;;
47882;SDS011;37739;50.350;7.578;2022-09-28T14:38:15;1.33;;;1.00;;
47882;SDS011;37739;50.350;7.578;2022-09-28T14:41:03;1.30;;;0.70;;
47882;SDS011;37739;50.350;7.578;2022-09-28T14:56:27;1.50;;;1.10;;
47882;SDS011;37739;50.350;7.578;2022-09-28T14:58:55;2.00;;;1.07;;
47882;SDS011;37739;50.350;7.578;2022-09-28T15:01:22;1.77;;;1.33;;
47882;SDS011;37739;50.350;7.578;2022-09-28T15:03:53;1.20;;;1.00;;
47882;SDS011;37739;50.350;7.578;2022-09-28T15:06:21;1.20;;;0.70;;
47882;SDS011;37739;50.350;7.578;2022-09-28T15:08:47;0.90;;;0.70;;
47882;SDS011;37739;50.350;7.578;2022-09-28T15:11:13;1.03;;;0.73;;
47882;SDS011;37739;50.350;7.578;2022-09-28T15:13:42;1.63;;;0.70;;
47882;SDS011;37739;50.350;7.578;2022-09-28T15:16:16;1.40;;;1.10;;
47882;SDS011;37739;50.350;7.578;2022-09-28T15:18:57;1.93;;;1.10;;
47882;SDS011;37739;50.350;7.578;2022-09-28T15:21:43;0.90;;;0.80;;
47882;SDS011;37739;50.350;7.578;2022-09-28T15:26:58;2.43;;;2.23;;
47882;SDS011;37739;50.350;7.578;2022-09-28T15:29:30;15.00;;;11.37;;
47882;SDS011;37739;50.350;7.578;2022-09-28T15:31:57;15.37;;;11.20;;
47882;SDS011;37739;50.350;7.578;2022-09-28T15:34:30;28.07;;;18.80;;
47882;SDS011;37739;50.350;7.578;2022-09-28T15:37:26;29.67;;;19.67;;
47882;SDS011;37739;50.350;7.578;2022-09-28T15:39:53;19.47;;;12.90;;
47882;SDS011;37739;50.350;7.578;2022-09-28T15:42:21;30.27;;;19.87;;
47882;SDS011;37739;50.350;7.578;2022-09-28T15:47:34;11.50;;;7.73;;
47882;SDS011;37739;50.350;7.578;2022-09-28T15:52:37;10.10;;;8.10;;
47882;SDS011;37739;50.350;7.578;2022-09-28T15:57:55;5.53;;;4.60;;
47882;SDS011;37739;50.350;7.578;2022-09-28T16:00:49;3.83;;;3.17;;
47882;SDS011;37739;50.350;7.578;2022-09-28T16:03:36;3.70;;;2.80;;
47882;SDS011;37739;50.350;7.578;2022-09-28T16:06:10;3.33;;;2.30;;
47882;SDS011;37739;50.350;7.578;2022-09-28T16:08:37;1.67;;;1.57;;
47882;SDS011;37739;50.350;7.578;2022-09-28T16:11:07;1.70;;;1.03;;
47882;SDS011;37739;50.350;7.578;2022-09-28T16:13:52;1.07;;;0.97;;
47882;SDS011;37739;50.350;7.578;2022-09-28T16:16:36;3.63;;;2.50;;
47882;SDS011;37739;50.350;7.578;2022-09-28T16:19:21;3.30;;;1.77;;
47882;SDS011;37739;50.350;7.578;2022-09-28T16:21:50;3.10;;;2.73;;
47882;SDS011;37739;50.350;7.578;2022-09-28T16:29:33;10.40;;;9.30;;
47882;SDS011;37739;50.350;7.578;2022-09-28T16:35:48;3.90;;;3.40;;
47882;SDS011;37739;50.350;7.578;2022-09-28T16:37:36;2.70;;;2.03;;
47882;SDS011;37739;50.350;7.578;2022-09-28T16:40:09;1.10;;;0.90;;
47882;SDS011;37739;50.350;7.578;2022-09-28T16:42:37;1.77;;;1.30;;
47882;SDS011;37739;50.350;7.578;2022-09-28T16:45:08;1.10;;;0.90;;
47882;SDS011;37739;50.350;7.578;2022-09-28T16:47:47;2.10;;;1.10;;
47882;SDS011;37739;50.350;7.578;2022-09-28T16:50:17;1.30;;;1.10;;
47882;SDS011;37739;50.350;7.578;2022-09-28T16:52:48;1.73;;;1.23;;
47882;SDS011;37739;50.350;7.578;2022-09-28T16:55:40;1.40;;;1.00;;
47882;SDS011;37739;50.350;7.578;2022-09-28T16:58:08;1.93;;;1.10;;
47882;SDS011;37739;50.350;7.578;2022-09-28T17:00:34;1.43;;;1.20;;
47882;SDS011;37739;50.350;7.578;2022-09-28T17:03:00;1.53;;;1.20;;
47882;SDS011;37739;50.350;7.578;2022-09-28T17:05:29;1.37;;;0.87;;
47882;SDS011;37739;50.350;7.578;2022-09-28T17:07:58;1.13;;;0.90;;
47882;SDS011;37739;50.350;7.578;2022-09-28T17:10:30;1.67;;;1.30;;
47882;SDS011;37739;50.350;7.578;2022-09-28T17:12:59;1.40;;;1.17;;
47882;SDS011;37739;50.350;7.578;2022-09-28T17:15:29;2.50;;;1.63;;
47882;SDS011;37739;50.350;7.578;2022-09-28T17:17:55;3.50;;;2.10;;
47882;SDS011;37739;50.350;7.578;2022-09-28T17:20:26;3.00;;;2.17;;
47882;SDS011;37739;50.350;7.578;2022-09-28T17:22:56;2.60;;;2.40;;
47882;SDS011;37739;50.350;7.578;2022-09-28T17:25:21;4.70;;;2.50;;
47882;SDS011;37739;50.350;7.578;2022-09-28T17:27:50;5.30;;;4.83;;
47882;SDS011;37739;50.350;7.578;2022-09-28T17:30:18;13.00;;;11.70;;
47882;SDS011;37739;50.350;7.578;2022-09-28T17:32:44;9.50;;;8.70;;
47882;SDS011;37739;50.350;7.578;2022-09-28T17:35:11;6.07;;;5.47;;
47882;SDS011;37739;50.350;7.578;2022-09-28T17:37:37;4.93;;;4.53;;
47882;SDS011;37739;50.350;7.578;2022-09-28T17:40:25;3.80;;;3.10;;
47882;SDS011;37739;50.350;7.578;2022-09-28T17:42:56;2.53;;;2.33;;
47882;SDS011;37739;50.350;7.578;2022-09-28T17:45:23;2.53;;;2.20;;
47882;SDS011;37739;50.350;7.578;2022-09-28T17:47:51;3.07;;;2.70;;
47882;SDS011;37739;50.350;7.578;2022-09-28T17:50:22;2.97;;;2.60;;
47882;SDS011;37739;50.350;7.578;2022-09-28T17:52:50;2.60;;;2.23;;
47882;SDS011;37739;50.350;7.578;2022-09-28T17:55:26;2.30;;;2.10;;
47882;SDS011;37739;50.350;7.578;2022-09-28T17:57:54;2.57;;;2.33;;
47882;SDS011;37739;50.350;7.578;2022-09-28T18:00:20;2.00;;;1.80;;
47882;SDS011;37739;50.350;7.578;2022-09-28T18:02:51;2.80;;;2.00;;
47882;SDS011;37739;50.350;7.578;2022-09-28T18:05:22;2.17;;;1.40;;
47882;SDS011;37739;50.350;7.578;2022-09-28T18:07:49;1.90;;;1.70;;
47882;SDS011;37739;50.350;7.578;2022-09-28T18:10:16;1.87;;;1.67;;
47882;SDS011;37739;50.350;7.578;2022-09-28T18:12:46;2.20;;;2.00;;
47882;SDS011;37739;50.350;7.578;2022-09-28T18:15:12;2.87;;;2.40;;
47882;SDS011;37739;50.350;7.578;2022-09-28T18:17:40;3.40;;;3.10;;
47882;SDS011;37739;50.350;7.578;2022-09-28T18:20:08;4.23;;;2.60;;
47882;SDS011;37739;50.350;7.578;2022-09-28T18:22:37;3.40;;;3.10;;
47882;SDS011;37739;50.350;7.578;2022-09-28T18:25:05;3.37;;;3.07;;
47882;SDS011;37739;50.350;7.578;2022-09-28T18:27:35;4.50;;;2.47;;
47882;SDS011;37739;50.350;7.578;2022-09-28T18:30:03;3.50;;;2.00;;
47882;SDS011;37739;50.350;7.578;2022-09-28T18:32:29;3.63;;;1.73;;
47882;SDS011;37739;50.350;7.578;2022-09-28T18:34:54;2.63;;;1.80;;